Time;durP1;ratioP1;P1;durP2;ratioP2;P2;SDS_P1;SDS_P2;PMS_P1;PMS_P2;Temp;Humidity;BMP_temperature;BMP_pressure;BME280_temperature;BME280_humidity;BME280_pressure;Samples;Min_cycle;Max_cycle;Signal;HPM_P1;HPM_P2
2023/10/08 00:01:14;;;;;;;12.40;3.75;;;;;;;17.85;43.62;99255.03;4442055;32;34177;-84
2023/10/08 00:03:50;;;;;;;8.02;3.33;;;;;;;18.00;42.25;99253.94;4452060;32;34542;-83
2023/10/08 00:06:20;;;;;;;7.97;3.70;;;;;;;18.21;43.79;99252.69;4451209;32;34047;-83
2023/10/08 00:08:49;;;;;;;10.93;3.95;;;;;;;18.13;42.20;99252.81;4438589;32;34820;-83
2023/10/08 00:11:22;;;;;;;11.95;3.60;;;;;;;18.29;40.11;99235.06;4437063;32;34120;-84
2023/10/08 00:13:50;;;;;;;9.10;3.12;;;;;;;18.25;42.20;99236.00;4447630;32;33996;-84
2023/10/08 00:16:21;;;;;;;7.45;3.00;;;;;;;18.28;39.59;99229.84;4443700;32;34880;-86
2023/10/08 00:18:50;;;;;;;9.20;3.28;;;;;;;18.30;39.86;99230.69;4450123;32;33868;-84
2023/10/08 00:21:19;;;;;;;8.98;3.12;;;;;;;18.81;38.31;99225.41;4440682;32;32957;-82
2023/10/08 00:23:52;;;;;;;7.28;2.80;;;;;;;18.71;38.67;99222.97;4436982;32;34931;-82
2023/10/08 00:26:27;;;;;;;7.07;3.12;;;;;;;19.02;38.44;99213.59;4451111;32;34250;-81
2023/10/08 00:29:15;;;;;;;8.02;2.92;;;;;;;18.93;37.90;99222.50;4438465;32;34018;-83
2023/10/08 00:31:45;;;;;;;8.38;3.70;;;;;;;19.22;37.84;99223.69;4423549;32;33456;-86
2023/10/08 00:34:13;;;;;;;7.40;2.83;;;;;;;19.21;36.99;99225.47;4433818;32;34295;-83
2023/10/08 00:36:44;;;;;;;8.48;3.33;;;;;;;19.33;37.64;99227.81;4448820;32;33964;-83
2023/10/08 00:39:22;;;;;;;10.45;3.50;;;;;;;19.10;37.93;99224.81;4441796;32;34034;-84
2023/10/08 00:41:58;;;;;;;6.97;2.80;;;;;;;19.13;37.33;99219.47;4426795;32;33486;-85
2023/10/08 00:44:29;;;;;;;6.57;3.17;;;;;;;19.16;37.89;99220.28;4422790;32;33860;-82
2023/10/08 00:47:00;;;;;;;6.35;2.78;;;;;;;19.23;37.12;99204.38;4442625;32;33987;-83
2023/10/08 00:49:48;;;;;;;7.55;3.05;;;;;;;19.27;36.94;99191.13;4442402;32;33278;-83
2023/10/08 00:52:26;;;;;;;9.05;3.28;;;;;;;19.56;36.41;99187.00;4435414;32;33425;-84
2023/10/08 00:57:35;;;;;;;6.85;3.05;;;;;;;19.93;36.10;99197.53;4435320;32;35123;-84
2023/10/08 01:00:12;;;;;;;7.43;2.97;;;;;;;19.83;36.29;99204.78;4443655;32;34224;-84
2023/10/08 01:02:46;;;;;;;7.55;3.05;;;;;;;19.83;36.69;99203.91;4449787;32;34075;-85
2023/10/08 01:05:25;;;;;;;7.70;3.30;;;;;;;19.66;38.95;99199.03;4437515;32;33956;-84
2023/10/08 01:07:55;;;;;;;8.65;3.22;;;;;;;19.62;40.87;99211.44;4439264;32;34017;-85
2023/10/08 01:10:24;;;;;;;9.52;3.22;;;;;;;19.51;41.30;99210.78;4447573;32;34929;-84
2023/10/08 01:15:29;;;;;;;7.05;2.97;;;;;;;19.41;41.68;99206.63;4437236;32;32561;-84
2023/10/08 01:20:34;;;;;;;9.57;3.25;;;;;;;19.14;42.05;99197.56;4432393;32;34898;-84
2023/10/08 01:23:13;;;;;;;8.10;3.37;;;;;;;19.15;40.36;99197.53;4424902;32;33562;-84
2023/10/08 01:25:42;;;;;;;8.27;2.97;;;;;;;19.11;39.78;99187.13;4431458;32;34016;-83
2023/10/08 01:28:25;;;;;;;8.02;3.33;;;;;;;19.11;39.78;99189.75;4443736;32;34759;-82
2023/10/08 01:30:55;;;;;;;9.07;3.85;;;;;;;18.80;39.77;99189.53;4444783;32;33622;-84
2023/10/08 01:33:27;;;;;;;8.85;2.97;;;;;;;18.91;39.07;99180.53;4429168;32;34039;-83
2023/10/08 01:35:55;;;;;;;7.72;2.83;;;;;;;19.27;38.44;99172.72;4424143;32;33405;-82
2023/10/08 01:38:26;;;;;;;9.98;3.00;;;;;;;18.74;39.21;99169.50;4447650;32;33791;-84
2023/10/08 01:40:53;;;;;;;6.78;2.78;;;;;;;19.12;38.27;99170.44;4438587;32;34670;-84
2023/10/08 01:43:21;;;;;;;8.63;3.65;;;;;;;19.42;37.76;99172.38;4444464;32;33349;-83
2023/10/08 01:45:51;;;;;;;6.30;2.87;;;;;;;19.16;39.46;99178.22;4441707;32;33970;-84
2023/10/08 01:48:31;;;;;;;6.43;2.80;;;;;;;18.94;40.07;99172.59;4449114;32;34093;-83
2023/10/08 01:51:01;;;;;;;8.88;3.10;;;;;;;19.20;38.12;99158.84;4436141;32;34374;-83
2023/10/08 01:53:28;;;;;;;8.63;3.35;;;;;;;19.19;39.52;99154.50;4436865;32;33328;-84
2023/10/08 01:55:58;;;;;;;7.87;3.30;;;;;;;19.11;39.40;99151.19;4441340;32;34808;-84
2023/10/08 01:58:26;;;;;;;9.43;3.35;;;;;;;19.34;39.95;99150.66;4446987;32;34250;-82
2023/10/08 02:00:58;;;;;;;8.23;3.00;;;;;;;19.19;39.88;99151.03;4445900;32;34547;-84
2023/10/08 02:03:29;;;;;;;7.20;3.00;;;;;;;19.22;40.08;99153.59;4422051;32;34210;-85
2023/10/08 02:05:59;;;;;;;8.18;3.00;;;;;;;19.33;40.58;99151.56;4435291;32;34770;-84
2023/10/08 02:08:30;;;;;;;8.73;3.92;;;;;;;19.15;40.86;99144.09;4450097;32;34433;-84
2023/10/08 02:10:57;;;;;;;8.07;3.47;;;;;;;19.11;39.43;99142.44;4443250;32;33736;-83
2023/10/08 02:13:26;;;;;;;12.40;4.68;;;;;;;19.34;39.42;99131.41;4428091;32;33985;-83
2023/10/08 02:15:53;;;;;;;7.97;3.15;;;;;;;19.45;38.50;99137.28;4444731;32;34603;-84
2023/10/08 02:18:25;;;;;;;7.68;3.20;;;;;;;18.96;40.21;99148.91;4444312;32;34262;-83
2023/10/08 02:20:53;;;;;;;8.18;3.22;;;;;;;19.13;38.98;99138.91;4447664;32;34138;-83
2023/10/08 02:23:21;;;;;;;10.00;3.67;;;;;;;18.78;39.68;99144.88;4443519;32;33583;-83
2023/10/08 02:25:49;;;;;;;7.60;3.40;;;;;;;19.29;38.48;99117.53;4445286;32;34786;-83
2023/10/08 02:28:20;;;;;;;7.30;3.40;;;;;;;18.93;39.88;99122.69;4433959;32;33251;-83
2023/10/08 02:30:47;;;;;;;7.05;3.00;;;;;;;19.08;39.24;99124.13;4446805;32;33706;-82
2023/10/08 02:33:15;;;;;;;7.32;2.70;;;;;;;18.94;39.84;99133.19;4437021;32;33306;-84
2023/10/08 02:35:45;;;;;;;7.37;3.53;;;;;;;18.89;40.70;99137.66;4436299;32;34648;-81
2023/10/08 02:38:21;;;;;;;10.40;3.22;;;;;;;19.16;38.94;99119.53;4429196;32;33769;-83
2023/10/08 02:40:48;;;;;;;6.30;3.05;;;;;;;18.73;39.85;99117.87;4427722;32;34016;-82
2023/10/08 02:43:17;;;;;;;7.82;3.08;;;;;;;19.12;39.17;99112.62;4436003;32;32889;-84
2023/10/08 02:45:49;;;;;;;9.10;3.40;;;;;;;19.16;38.94;99107.25;4438455;32;34541;-82
2023/10/08 02:48:20;;;;;;;10.05;2.90;;;;;;;18.85;40.18;99114.97;4439815;32;34897;-83
2023/10/08 02:50:48;;;;;;;9.95;3.70;;;;;;;18.85;40.10;99124.63;4424552;32;33979;-84
2023/10/08 02:53:20;;;;;;;9.40;3.45;;;;;;;19.10;39.40;99124.97;4437688;32;33689;-85
2023/10/08 02:55:49;;;;;;;8.10;3.37;;;;;;;19.22;39.19;99108.91;4432489;32;33937;-85
2023/10/08 02:58:18;;;;;;;8.80;3.53;;;;;;;19.26;39.39;99123.69;4441203;32;35074;-85
2023/10/08 03:00:48;;;;;;;8.38;3.05;;;;;;;19.24;39.15;99117.59;4440308;32;34643;-84
2023/10/08 03:03:16;;;;;;;8.15;3.08;;;;;;;19.50;39.25;99109.09;4422297;32;34963;-83
2023/10/08 03:05:48;;;;;;;15.32;3.50;;;;;;;19.29;39.54;99105.25;4446904;32;34772;-84
2023/10/08 03:08:23;;;;;;;10.95;3.37;;;;;;;19.23;39.37;99107.13;4443330;32;34131;-84
2023/10/08 03:11:02;;;;;;;8.82;3.42;;;;;;;19.33;39.33;99106.88;4422900;32;34856;-83
2023/10/08 03:13:30;;;;;;;8.88;3.58;;;;;;;19.43;39.10;99099.63;4426270;32;33789;-83
2023/10/08 03:18:36;;;;;;;9.85;3.28;;;;;;;19.42;39.33;99104.03;4437284;32;33839;-85
2023/10/08 03:21:20;;;;;;;8.65;3.10;;;;;;;19.00;40.03;99107.66;4434468;32;32481;-85
2023/10/08 03:23:51;;;;;;;8.60;2.95;;;;;;;18.86;40.31;99102.69;4442468;32;34244;-84
2023/10/08 03:26:33;;;;;;;7.25;3.10;;;;;;;19.12;39.68;99087.22;4427544;32;33972;-84
2023/10/08 03:29:07;;;;;;;10.77;3.28;;;;;;;19.09;39.91;99091.69;4446706;32;34287;-84
2023/10/08 03:31:49;;;;;;;11.12;3.70;;;;;;;19.35;39.56;99085.81;4413778;32;34699;-84
2023/10/08 03:34:19;;;;;;;8.40;3.25;;;;;;;19.62;38.93;99082.56;4434611;32;34239;-85
2023/10/08 03:36:49;;;;;;;9.45;3.37;;;;;;;19.25;40.06;99082.56;4421784;32;33696;-84
2023/10/08 03:39:18;;;;;;;10.63;3.55;;;;;;;19.48;39.75;99074.09;4423225;32;34953;-85
2023/10/08 03:42:05;;;;;;;8.65;3.42;;;;;;;19.12;40.43;99075.84;4416822;32;32230;-85
2023/10/08 03:44:37;;;;;;;8.25;3.28;;;;;;;19.57;39.32;99076.50;4442628;32;33967;-83
2023/10/08 03:47:10;;;;;;;10.10;3.60;;;;;;;19.21;40.50;99070.38;4444917;32;33954;-83
2023/10/08 03:49:45;;;;;;;9.65;3.20;;;;;;;19.27;40.24;99066.72;4448131;32;34530;-84
2023/10/08 03:52:13;;;;;;;7.47;3.40;;;;;;;19.36;40.04;99056.00;4422794;32;34471;-85
2023/10/08 03:54:48;;;;;;;8.02;3.10;;;;;;;19.16;40.89;99056.47;4448127;32;33470;-83
2023/10/08 03:57:25;;;;;;;8.95;3.25;;;;;;;19.31;40.63;99048.22;4438681;32;34814;-84
2023/10/08 03:59:58;;;;;;;9.50;3.65;;;;;;;19.32;40.69;99054.34;4439272;32;33659;-84
2023/10/08 04:02:39;;;;;;;7.30;2.70;;;;;;;19.31;40.61;99050.84;4441464;32;34287;-86
2023/10/08 04:05:21;;;;;;;10.82;3.00;;;;;;;19.33;40.70;99043.81;4450563;32;33557;-86
2023/10/08 04:13:08;;;;;;;13.50;3.17;;;;;;;19.08;41.22;99050.53;4423449;32;33350;-83
2023/10/08 04:15:43;;;;;;;9.95;3.10;;;;;;;19.03;41.11;99049.81;4436324;32;34235;-84
2023/10/08 04:18:13;;;;;;;9.05;3.05;;;;;;;19.07;41.04;99048.81;4442375;32;33860;-85
2023/10/08 04:21:00;;;;;;;7.95;2.85;;;;;;;19.50;40.19;99042.50;4440409;32;33892;-82
2023/10/08 04:23:29;;;;;;;8.43;3.00;;;;;;;19.31;40.45;99039.47;4446673;32;33987;-84
2023/10/08 04:25:57;;;;;;;7.90;2.97;;;;;;;19.48;40.55;99036.44;4440050;32;33311;-84
2023/10/08 04:28:28;;;;;;;10.10;3.53;;;;;;;19.53;40.18;99037.19;4449388;32;33465;-84
2023/10/08 04:31:01;;;;;;;12.07;3.50;;;;;;;19.52;40.35;99043.34;4449476;32;34854;-84
2023/10/08 04:33:33;;;;;;;10.02;3.22;;;;;;;19.75;40.07;99043.63;4439246;32;34010;-84
2023/10/08 04:36:02;;;;;;;9.80;3.20;;;;;;;19.23;41.01;99047.53;4446009;32;33174;-84
2023/10/08 04:38:36;;;;;;;9.82;3.40;;;;;;;19.47;40.97;99045.22;4449650;32;34668;-88
2023/10/08 04:41:08;;;;;;;8.50;3.42;;;;;;;19.44;40.55;99043.53;4439572;32;35574;-83
2023/10/08 04:43:42;;;;;;;8.55;3.45;;;;;;;19.67;40.28;99043.84;4435945;32;34581;-86
2023/10/08 04:46:19;;;;;;;9.88;2.95;;;;;;;19.82;39.69;99034.69;4427908;32;33393;-84
2023/10/08 04:48:49;;;;;;;7.57;2.85;;;;;;;19.68;40.16;99031.53;4431516;32;33798;-84
2023/10/08 04:51:17;;;;;;;9.45;3.05;;;;;;;19.79;40.38;99045.28;4451203;32;33620;-83
2023/10/08 04:53:47;;;;;;;8.57;3.00;;;;;;;19.64;40.04;99040.44;4426686;32;34484;-88
2023/10/08 04:56:22;;;;;;;10.13;3.12;;;;;;;19.78;40.05;99046.19;4435703;32;34600;-86
2023/10/08 04:58:51;;;;;;;6.57;2.90;;;;;;;19.52;40.34;99043.34;4435900;32;34723;-85
2023/10/08 05:41:27;;;;;;;9.40;3.05;;;;;;;19.96;41.36;99038.69;4416624;32;33875;-87
2023/10/08 05:44:13;;;;;;;10.30;3.12;;;;;;;20.10;40.94;99041.81;4451930;32;35064;-84
2023/10/08 05:47:28;;;;;;;15.93;3.45;;;;;;;20.28;40.79;99049.19;4437489;32;34049;-85
2023/10/08 05:57:14;;;;;;;11.68;2.83;;;;;;;20.22;41.19;99074.81;4437582;32;33943;-85
2023/10/08 06:13:06;;;;;;;9.63;3.65;;;;;;;20.40;41.29;99093.59;4437047;32;33679;-85
2023/10/08 06:18:19;;;;;;;10.13;3.47;;;;;;;20.70;40.68;99098.94;4437023;32;33843;-85
2023/10/08 06:20:48;;;;;;;8.88;3.15;;;;;;;20.80;40.60;99108.28;4448720;32;33179;-84
2023/10/08 06:23:20;;;;;;;10.48;3.25;;;;;;;21.08;40.14;99116.22;4451281;32;33980;-84
2023/10/08 06:25:58;;;;;;;17.73;3.75;;;;;;;20.56;40.82;99114.25;4452508;32;33919;-84
2023/10/08 06:28:26;;;;;;;11.27;3.28;;;;;;;20.53;41.17;99114.34;4448106;32;34219;-86
2023/10/08 06:30:56;;;;;;;10.82;3.78;;;;;;;20.77;40.87;99113.66;4446057;32;33713;-85
2023/10/08 06:33:30;;;;;;;8.60;2.83;;;;;;;20.62;41.11;99103.56;4410420;32;33029;-85
2023/10/08 06:36:25;;;;;;;10.90;3.10;;;;;;;20.75;40.91;99117.22;4437022;32;34915;-85
2023/10/08 06:38:49;;;;;;;11.23;3.95;;;;;;;20.98;40.70;99122.66;4425356;32;34069;-85
2023/10/08 06:41:20;;;;;;;9.98;4.03;;;;;;;21.06;40.34;99125.97;4437105;32;34164;-84
2023/10/08 06:44:14;;;;;;;15.25;3.60;;;;;;;20.63;41.64;99139.53;4433049;32;34181;-83
2023/10/08 06:46:42;;;;;;;11.18;3.30;;;;;;;20.69;41.16;99123.56;4447187;32;33856;-85
2023/10/08 06:49:13;;;;;;;7.78;3.08;;;;;;;20.89;41.16;99128.22;4436850;32;33510;-85
2023/10/08 06:51:45;;;;;;;10.48;3.28;;;;;;;20.87;41.08;99130.03;4437145;32;34282;-85
2023/10/08 06:54:17;;;;;;;11.45;3.80;;;;;;;21.22;40.97;99131.63;4423481;32;34605;-84
2023/10/08 06:56:51;;;;;;;11.63;3.58;;;;;;;20.70;41.50;99142.84;4436825;32;34379;-84
2023/10/08 06:59:23;;;;;;;9.80;3.35;;;;;;;20.86;41.21;99144.97;4436814;32;33327;-85
2023/10/08 07:01:51;;;;;;;9.55;3.37;;;;;;;21.12;40.75;99145.97;4436267;32;33164;-84
2023/10/08 07:04:21;;;;;;;11.02;3.58;;;;;;;20.90;41.13;99140.47;4436997;32;33595;-84
2023/10/08 07:06:50;;;;;;;8.85;3.50;;;;;;;20.78;41.80;99125.91;4436877;32;34452;-85
2023/10/08 07:11:56;;;;;;;12.52;3.53;;;;;;;20.75;42.21;99143.56;4445977;32;33244;-86
2023/10/08 07:14:26;;;;;;;10.70;3.15;;;;;;;20.88;41.70;99127.38;4438272;32;34038;-84
2023/10/08 07:16:59;;;;;;;9.85;3.40;;;;;;;20.43;43.00;99145.31;4452249;32;34979;-85
2023/10/08 07:19:38;;;;;;;13.40;3.33;;;;;;;20.51;43.18;99121.44;4438364;32;33876;-86
2023/10/08 07:22:28;;;;;;;11.25;3.58;;;;;;;20.28;43.68;99125.53;4439551;32;34249;-86
2023/10/08 07:24:57;;;;;;;11.70;3.67;;;;;;;20.65;42.92;99122.78;4452281;32;34825;-86
2023/10/08 07:27:31;;;;;;;12.35;3.40;;;;;;;20.74;42.91;99119.00;4452209;32;33530;-86
2023/10/08 07:30:02;;;;;;;9.80;3.33;;;;;;;20.90;42.87;99124.69;4438777;32;33791;-86
2023/10/08 07:32:34;;;;;;;9.38;3.42;;;;;;;21.10;42.55;99124.06;4438661;32;33581;-85
2023/10/08 07:37:47;;;;;;;;;;;;;;;20.71;43.38;99132.25;4452292;32;34824;-84
2023/10/08 07:40:15;;;;;;;9.40;3.45;;;;;;;20.78;43.51;99136.44;4452499;32;34090;-84
2023/10/08 07:42:43;;;;;;;10.30;3.17;;;;;;;21.21;42.76;99127.22;4437910;32;33915;-84
2023/10/08 07:45:17;;;;;;;10.52;3.12;;;;;;;21.02;42.83;99128.72;4452308;32;34099;-85
2023/10/08 07:47:45;;;;;;;9.55;2.90;;;;;;;21.31;42.15;99115.50;4451847;32;34110;-84
2023/10/08 07:50:15;;;;;;;11.27;3.30;;;;;;;21.16;42.87;99121.25;4452308;32;33595;-85
2023/10/08 07:52:44;;;;;;;8.85;3.12;;;;;;;21.40;43.04;99122.28;4452240;32;33493;-84
2023/10/08 07:55:17;;;;;;;9.20;3.42;;;;;;;21.11;43.25;99110.84;4451609;32;34342;-84
2023/10/08 07:57:45;;;;;;;8.23;3.15;;;;;;;21.21;42.68;99118.47;4451727;32;34277;-86
2023/10/08 08:00:18;;;;;;;11.25;3.20;;;;;;;21.41;42.46;99128.44;4425602;32;33284;-85
2023/10/08 08:02:46;;;;;;;11.10;3.60;;;;;;;21.07;43.11;99130.31;4438307;32;33455;-85
2023/10/08 08:05:16;;;;;;;10.48;3.42;;;;;;;20.65;43.96;99129.81;4452062;32;33767;-85
2023/10/08 08:07:49;;;;;;;12.45;3.50;;;;;;;20.95;43.73;99122.78;4437499;32;34987;-84
2023/10/08 08:10:18;;;;;;;9.20;2.90;;;;;;;21.07;43.57;99122.41;4451958;32;33931;-86
2023/10/08 08:12:46;;;;;;;11.18;3.55;;;;;;;21.41;42.94;99123.16;4451792;32;33046;-84
2023/10/08 08:15:16;;;;;;;9.93;3.53;;;;;;;20.80;44.03;99113.56;4451706;32;33652;-84
2023/10/08 08:17:47;;;;;;;8.70;3.10;;;;;;;21.03;44.00;99112.00;4452393;32;33735;-85
2023/10/08 08:20:17;;;;;;;9.43;4.03;;;;;;;20.86;44.26;99123.91;4437857;32;33907;-84
2023/10/08 08:22:49;;;;;;;11.50;3.20;;;;;;;21.04;44.45;99126.91;4451920;32;33994;-84
2023/10/08 08:25:33;;;;;;;8.00;3.08;;;;;;;20.94;45.18;99128.09;4438226;32;34239;-85
2023/10/08 08:28:05;;;;;;;10.70;3.55;;;;;;;21.25;44.12;99128.91;4452127;32;34740;-85
2023/10/08 08:30:36;;;;;;;9.40;3.47;;;;;;;20.83;45.24;99128.41;4452011;32;33547;-85
2023/10/08 08:33:10;;;;;;;8.82;3.05;;;;;;;21.13;44.83;99131.87;4451636;32;34744;-84
2023/10/08 08:35:38;;;;;;;9.77;3.00;;;;;;;21.26;44.87;99129.75;4451903;32;33608;-83
2023/10/08 08:38:08;;;;;;;8.00;2.95;;;;;;;21.43;44.23;99131.87;4451828;32;34115;-85
2023/10/08 08:40:36;;;;;;;8.07;3.05;;;;;;;21.76;43.85;99146.59;4451700;32;34668;-84
2023/10/08 08:43:05;;;;;;;14.43;3.62;;;;;;;21.29;44.87;99130.53;4437688;32;33115;-85
2023/10/08 08:45:35;;;;;;;9.93;3.50;;;;;;;21.35;44.75;99134.75;4451583;32;33510;-84
2023/10/08 08:48:04;;;;;;;13.52;3.33;;;;;;;21.54;44.70;99116.56;4425095;32;33117;-85
2023/10/08 08:50:33;;;;;;;8.80;3.10;;;;;;;21.72;44.55;99105.41;4451790;32;33777;-81
2023/10/08 08:53:03;;;;;;;10.75;3.12;;;;;;;21.81;44.23;99120.91;4452210;32;34334;-84
2023/10/08 08:55:32;;;;;;;10.30;3.10;;;;;;;21.72;44.50;99123.03;4437936;32;33441;-85
2023/10/08 08:58:00;;;;;;;12.73;3.40;;;;;;;22.06;44.86;99138.56;4438139;32;33721;-86
2023/10/08 09:00:30;;;;;;;16.58;3.17;;;;;;;21.69;44.84;99137.16;4451313;32;33518;-84
2023/10/08 09:02:58;;;;;;;10.40;2.70;;;;;;;21.42;45.54;99128.38;4437400;32;33905;-84
2023/10/08 09:05:27;;;;;;;11.18;2.97;;;;;;;21.33;45.95;99124.28;4451494;32;33517;-85
2023/10/08 09:08:03;;;;;;;10.60;3.30;;;;;;;21.71;45.26;99129.22;4451304;32;35341;-84
2023/10/08 09:10:51;;;;;;;7.12;2.70;;;;;;;22.05;44.64;99128.94;4437629;32;33725;-85
2023/10/08 09:13:23;;;;;;;9.75;3.10;;;;;;;22.01;45.23;99132.56;4440194;32;34413;-84
2023/10/08 09:15:51;;;;;;;12.35;4.15;;;;;;;21.95;45.27;99146.00;4451655;32;34929;-86
2023/10/08 09:18:23;;;;;;;8.05;2.60;;;;;;;21.83;46.36;99163.97;4451131;32;33864;-85
2023/10/08 09:20:52;;;;;;;11.70;2.53;;;;;;;21.82;45.74;99167.53;4437497;32;34190;-85
2023/10/08 09:23:22;;;;;;;10.40;2.80;;;;;;;21.85;45.92;99170.03;4437126;32;34044;-85
2023/10/08 09:25:49;;;;;;;17.80;3.15;;;;;;;21.98;45.35;99180.22;4438062;32;34403;-85
2023/10/08 09:28:18;;;;;;;11.85;3.42;;;;;;;22.06;45.49;99189.59;4453121;32;33676;-85
2023/10/08 09:30:48;;;;;;;8.02;2.42;;;;;;;21.90;45.48;99183.13;4453418;32;33594;-85
2023/10/08 09:33:17;;;;;;;9.23;3.10;;;;;;;21.73;45.90;99209.19;4452914;32;33669;-84
2023/10/08 09:35:46;;;;;;;7.75;2.72;;;;;;;21.40;46.97;99203.16;4441186;32;33218;-85
2023/10/08 09:38:22;;;;;;;9.75;3.05;;;;;;;21.50;47.06;99205.50;4437090;32;33910;-87
2023/10/08 09:40:53;;;;;;;9.40;3.10;;;;;;;21.54;46.94;99224.72;4451555;32;34000;-83
2023/10/08 09:43:22;;;;;;;8.40;2.83;;;;;;;21.12;47.82;99240.88;4453174;32;33139;-86
2023/10/08 09:46:06;;;;;;;11.38;3.10;;;;;;;21.48;46.91;99246.00;4450270;32;33576;-88
2023/10/08 09:48:38;;;;;;;9.57;2.95;;;;;;;21.09;48.21;99227.78;4429556;32;33457;-89
2023/10/08 09:51:06;;;;;;;10.82;3.28;;;;;;;21.43;47.34;99240.00;4435090;32;34084;-89
2023/10/08 09:53:52;;;;;;;8.07;2.80;;;;;;;21.44;47.43;99233.81;4439010;32;34196;-85
2023/10/08 09:56:22;;;;;;;10.40;2.80;;;;;;;21.34;47.74;99226.19;4446499;32;34620;-83
2023/10/08 09:58:51;;;;;;;11.77;3.17;;;;;;;21.37;48.51;99233.16;4432541;32;34622;-85
2023/10/08 10:01:22;;;;;;;13.75;3.00;;;;;;;21.40;48.39;99248.00;4423740;32;33741;-85
2023/10/08 10:03:50;;;;;;;13.23;3.78;;;;;;;21.41;48.60;99242.72;4423332;32;34286;-87
2023/10/08 10:06:18;;;;;;;10.90;3.42;;;;;;;21.08;49.08;99257.69;4437289;32;33480;-82
2023/10/08 10:08:48;;;;;;;9.93;3.53;;;;;;;21.09;49.41;99268.19;4425136;32;34550;-85
2023/10/08 10:11:16;;;;;;;12.00;3.92;;;;;;;20.75;50.83;99286.69;4435976;32;33666;-85
2023/10/08 10:13:47;;;;;;;9.77;3.25;;;;;;;20.64;51.57;99305.41;4440687;32;34134;-84
2023/10/08 10:16:21;;;;;;;13.27;3.12;;;;;;;20.36;52.63;99328.06;4424400;32;34577;-83
2023/10/08 10:18:49;;;;;;;10.73;2.97;;;;;;;20.70;51.88;99309.69;4428560;32;33903;-87
2023/10/08 10:21:17;;;;;;;9.50;2.90;;;;;;;20.64;52.02;99323.00;4445122;32;33998;-84
2023/10/08 10:23:46;;;;;;;12.60;2.90;;;;;;;20.71;52.19;99319.31;4449834;32;33422;-87
2023/10/08 10:26:33;;;;;;;14.68;2.92;;;;;;;20.81;52.13;99299.72;4447934;32;33965;-87
2023/10/08 10:29:10;;;;;;;7.53;2.20;;;;;;;20.49;52.48;99299.66;4442454;32;33891;-85
2023/10/08 10:31:46;;;;;;;8.23;2.20;;;;;;;20.35;52.84;99310.56;4437327;32;33500;-87
2023/10/08 10:34:16;;;;;;;4.60;1.80;;;;;;;20.62;51.29;99304.62;4437275;32;33156;-83
2023/10/08 10:36:49;;;;;;;4.00;1.35;;;;;;;20.37;51.77;99288.53;4439400;32;33551;-87
2023/10/08 10:39:26;;;;;;;5.87;1.90;;;;;;;20.11;52.27;99299.69;4428140;32;33826;-87
2023/10/08 10:41:57;;;;;;;5.97;1.55;;;;;;;20.20;52.22;99311.78;4429148;32;33468;-87
2023/10/08 10:44:25;;;;;;;6.15;1.27;;;;;;;20.20;52.60;99316.19;4441593;32;34097;-85
2023/10/08 10:47:26;;;;;;;2.05;1.08;;;;;;;20.28;51.65;99323.00;4449955;32;34134;-85
2023/10/08 10:49:53;;;;;;;4.80;0.90;;;;;;;20.46;51.48;99315.56;4453210;32;34925;-87
2023/10/08 10:52:32;;;;;;;5.37;1.00;;;;;;;20.16;51.91;99320.66;4430259;32;34425;-87
2023/10/08 10:58:11;;;;;;;2.50;0.80;;;;;;;19.73;52.28;99326.03;4437381;32;33896;-85
2023/10/08 11:03:16;;;;;;;1.87;0.60;;;;;;;19.85;51.72;99346.78;4446901;32;34584;-85
2023/10/08 11:05:51;;;;;;;1.80;0.50;;;;;;;19.89;51.13;99348.50;4451093;32;33155;-87
2023/10/08 11:08:19;;;;;;;2.65;0.50;;;;;;;20.06;50.25;99350.72;4428429;32;33993;-86
2023/10/08 11:10:50;;;;;;;5.62;0.68;;;;;;;19.69;50.80;99356.78;4452658;32;34048;-88
2023/10/08 11:13:28;;;;;;;2.67;0.52;;;;;;;19.91;50.62;99352.78;4441645;32;33317;-85
2023/10/08 11:15:58;;;;;;;1.42;0.50;;;;;;;19.63;51.38;99362.19;4436296;32;33306;-85
2023/10/08 11:18:29;;;;;;;2.45;0.60;;;;;;;19.99;50.31;99364.91;4452207;32;33992;-95
2023/10/08 11:21:15;;;;;;;1.55;0.47;;;;;;;19.95;50.20;99374.66;4438740;32;34973;-88
2023/10/08 11:23:43;;;;;;;2.47;0.40;;;;;;;19.59;49.77;99364.00;4438741;32;34563;-84
2023/10/08 11:26:12;;;;;;;1.87;0.40;;;;;;;19.31;50.15;99357.53;4437575;32;34265;-84
2023/10/08 11:28:43;;;;;;;1.35;0.32;;;;;;;19.50;50.12;99356.28;4447611;32;34043;-86
2023/10/08 11:31:11;;;;;;;1.00;0.20;;;;;;;19.38;49.70;99357.38;4446442;32;34263;-86
2023/10/08 11:33:48;;;;;;;2.05;0.20;;;;;;;19.14;48.49;99363.13;4428766;32;33875;-83
2023/10/08 11:36:19;;;;;;;0.15;0.10;;;;;;;19.07;47.84;99359.75;4437957;32;33312;-85
2023/10/08 11:38:53;;;;;;;5.10;0.30;;;;;;;18.98;47.71;99366.91;4452274;32;33486;-87
2023/10/08 11:41:21;;;;;;;2.62;0.30;;;;;;;18.55;47.33;99367.63;4432839;32;34131;-84
2023/10/08 11:43:53;;;;;;;3.17;0.32;;;;;;;18.75;47.34;99372.56;4449316;32;34028;-83
2023/10/08 11:46:40;;;;;;;0.37;0.28;;;;;;;18.74;47.32;99374.34;4448380;32;33753;-88
2023/10/08 11:49:17;;;;;;;;;;;;;;;18.72;47.29;99365.62;4450634;32;33586;-84
2023/10/08 11:51:48;;;;;;;3.65;0.50;;;;;;;18.63;47.73;99381.50;4451207;32;34962;-83
2023/10/08 11:54:15;;;;;;;3.78;0.30;;;;;;;18.46;46.65;99382.66;4436358;32;34078;-87
2023/10/08 11:56:44;;;;;;;2.72;0.32;;;;;;;18.49;46.86;99381.75;4450890;32;33565;-86
2023/10/08 11:59:12;;;;;;;2.62;0.30;;;;;;;18.62;46.65;99377.16;4450726;32;32405;-84
2023/10/08 12:01:42;;;;;;;1.58;0.20;;;;;;;18.07;47.25;99385.84;4449293;32;33857;-84
2023/10/08 12:04:15;;;;;;;0.93;0.20;;;;;;;18.61;46.19;99388.56;4450981;32;33825;-90
2023/10/08 12:06:46;;;;;;;0.88;0.25;;;;;;;18.71;46.62;99379.66;4450591;32;33525;-84
2023/10/08 12:09:14;;;;;;;1.80;0.20;;;;;;;18.27;46.32;99390.84;4449820;32;34089;-89
2023/10/08 12:11:43;;;;;;;1.62;0.20;;;;;;;18.36;45.96;99399.44;4449147;32;33762;-89
2023/10/08 12:14:12;;;;;;;2.40;0.20;;;;;;;17.83;46.81;99411.53;4429697;32;35056;-87
2023/10/08 12:16:41;;;;;;;2.55;0.30;;;;;;;18.12;46.72;99420.78;4450116;32;33487;-83
2023/10/08 12:19:15;;;;;;;1.80;0.20;;;;;;;18.04;46.36;99422.66;4433523;32;34938;-87
2023/10/08 12:21:47;;;;;;;0.95;0.20;;;;;;;17.67;46.54;99431.81;4450954;32;34988;-85
2023/10/08 12:24:16;;;;;;;2.25;0.30;;;;;;;17.71;46.43;99432.62;4451108;32;33668;-91
2023/10/08 12:26:47;;;;;;;1.35;0.40;;;;;;;18.07;46.21;99443.56;4450900;32;33232;-85
2023/10/08 12:29:17;;;;;;;2.28;0.30;;;;;;;18.19;45.44;99448.69;4437527;32;33683;-84
2023/10/08 12:31:47;;;;;;;0.98;0.20;;;;;;;18.28;44.67;99427.53;4412209;32;32909;-77
2023/10/08 12:34:16;;;;;;;0.60;0.30;;;;;;;17.16;46.78;99446.31;4449087;32;34554;-85
2023/10/08 12:36:45;;;;;;;1.08;0.22;;;;;;;17.28;46.76;99448.84;4434726;32;33518;-84
2023/10/08 12:39:16;;;;;;;4.05;0.30;;;;;;;17.62;45.51;99462.47;4449794;32;33939;-84
2023/10/08 12:41:44;;;;;;;3.87;0.40;;;;;;;17.62;45.43;99461.59;4450537;32;34291;-85
2023/10/08 12:44:15;;;;;;;6.32;0.30;;;;;;;17.29;46.47;99447.94;4436295;32;33542;-86
2023/10/08 12:46:43;;;;;;;0.90;0.35;;;;;;;17.57;45.76;99463.38;4449358;32;33559;-87
2023/10/08 12:49:12;;;;;;;4.43;0.40;;;;;;;16.99;46.75;99470.91;4436173;32;34754;-84
2023/10/08 12:51:41;;;;;;;2.10;0.37;;;;;;;17.49;46.43;99473.94;4449977;32;34083;-85
2023/10/08 12:54:14;;;;;;;1.42;0.20;;;;;;;17.41;45.96;99467.91;4448093;32;33305;-89
2023/10/08 12:56:48;;;;;;;1.80;0.30;;;;;;;17.16;46.39;99477.75;4444505;32;34114;-84
2023/10/08 12:59:23;;;;;;;1.65;0.30;;;;;;;16.99;47.23;99481.41;4422935;32;33803;-84
2023/10/08 13:01:53;;;;;;;2.22;0.30;;;;;;;17.00;47.26;99496.22;4432063;32;34719;-83
2023/10/08 13:04:27;;;;;;;2.37;0.40;;;;;;;16.98;46.87;99500.63;4452769;32;33606;-84
2023/10/08 13:07:01;;;;;;;2.08;0.30;;;;;;;17.03;46.36;99498.81;4435343;32;33891;-87
2023/10/08 13:09:36;;;;;;;3.30;0.40;;;;;;;16.87;47.00;99499.84;4429610;32;33900;-86
2023/10/08 13:12:08;;;;;;;2.37;0.43;;;;;;;17.10;46.65;99509.25;4446178;32;34044;-83
2023/10/08 13:14:37;;;;;;;4.22;0.47;;;;;;;17.11;47.14;99513.63;4456685;32;34637;-84
2023/10/08 13:17:15;;;;;;;3.90;0.60;;;;;;;17.18;46.56;99518.78;4445601;32;33970;-84
2023/10/08 13:19:45;;;;;;;2.67;0.30;;;;;;;16.92;46.84;99521.59;4426306;32;33897;-85
2023/10/08 13:22:19;;;;;;;3.00;0.47;;;;;;;16.72;47.26;99524.34;4452380;32;34761;-84
2023/10/08 13:24:48;;;;;;;2.95;0.77;;;;;;;16.81;47.11;99526.06;4455771;32;34394;-85